sensor_id;sensor_type;location;lat;lon;timestamp;P1;durP1;ratioP1;P2;durP2;ratioP2
6127;SDS011;7073;42.672;23.256;2024-03-23T00:52:19;10.57;;;4.95;;
6127;SDS011;7073;42.672;23.256;2024-03-23T00:54:45;11.95;;;5.72;;
6127;SDS011;7073;42.672;23.256;2024-03-23T00:57:11;8.88;;;4.75;;
6127;SDS011;7073;42.672;23.256;2024-03-23T00:59:37;12.18;;;5.18;;
6127;SDS011;7073;42.672;23.256;2024-03-23T01:02:03;9.57;;;4.50;;
6127;SDS011;7073;42.672;23.256;2024-03-23T01:04:29;10.05;;;5.15;;
6127;SDS011;7073;42.672;23.256;2024-03-23T01:06:56;10.05;;;5.57;;
6127;SDS011;7073;42.672;23.256;2024-03-23T01:09:23;15.13;;;5.07;;
6127;SDS011;7073;42.672;23.256;2024-03-23T01:11:49;9.45;;;5.40;;
6127;SDS011;7073;42.672;23.256;2024-03-23T01:14:15;12.43;;;5.25;;
6127;SDS011;7073;42.672;23.256;2024-03-23T01:16:42;11.57;;;4.25;;
6127;SDS011;7073;42.672;23.256;2024-03-23T01:19:07;8.98;;;4.72;;
6127;SDS011;7073;42.672;23.256;2024-03-23T01:21:34;9.45;;;5.10;;
6127;SDS011;7073;42.672;23.256;2024-03-23T01:24:00;12.80;;;4.88;;
6127;SDS011;7073;42.672;23.256;2024-03-23T01:26:28;14.23;;;6.32;;
6127;SDS011;7073;42.672;23.256;2024-03-23T01:28:54;10.65;;;5.82;;
6127;SDS011;7073;42.672;23.256;2024-03-23T01:31:21;11.93;;;6.40;;
6127;SDS011;7073;42.672;23.256;2024-03-23T01:33:46;12.07;;;6.10;;
6127;SDS011;7073;42.672;23.256;2024-03-23T01:36:13;14.30;;;6.70;;
6127;SDS011;7073;42.672;23.256;2024-03-23T01:38:39;11.30;;;6.10;;
6127;SDS011;7073;42.672;23.256;2024-03-23T01:41:05;14.18;;;6.60;;
6127;SDS011;7073;42.672;23.256;2024-03-23T01:43:32;14.90;;;7.43;;
6127;SDS011;7073;42.672;23.256;2024-03-23T01:45:59;14.07;;;7.07;;
6127;SDS011;7073;42.672;23.256;2024-03-23T01:48:25;14.82;;;7.13;;
6127;SDS011;7073;42.672;23.256;2024-03-23T01:50:51;18.15;;;7.22;;
6127;SDS011;7073;42.672;23.256;2024-03-23T01:53:17;15.43;;;6.63;;
6127;SDS011;7073;42.672;23.256;2024-03-23T01:55:46;15.85;;;7.97;;
6127;SDS011;7073;42.672;23.256;2024-03-23T01:58:12;26.80;;;9.05;;
6127;SDS011;7073;42.672;23.256;2024-03-23T02:00:41;13.25;;;7.43;;
6127;SDS011;7073;42.672;23.256;2024-03-23T02:03:21;14.70;;;6.72;;
6127;SDS011;7073;42.672;23.256;2024-03-23T02:05:48;12.23;;;6.63;;
6127;SDS011;7073;42.672;23.256;2024-03-23T02:08:14;14.80;;;7.13;;
6127;SDS011;7073;42.672;23.256;2024-03-23T02:10:41;16.55;;;7.30;;
6127;SDS011;7073;42.672;23.256;2024-03-23T02:13:07;14.43;;;6.65;;
6127;SDS011;7073;42.672;23.256;2024-03-23T02:15:34;15.60;;;8.07;;
6127;SDS011;7073;42.672;23.256;2024-03-23T02:18:01;14.25;;;6.53;;
6127;SDS011;7073;42.672;23.256;2024-03-23T02:20:28;13.93;;;6.60;;
6127;SDS011;7073;42.672;23.256;2024-03-23T02:22:55;19.42;;;8.50;;
6127;SDS011;7073;42.672;23.256;2024-03-23T02:25:22;13.63;;;6.95;;
6127;SDS011;7073;42.672;23.256;2024-03-23T02:27:47;16.73;;;6.60;;
6127;SDS011;7073;42.672;23.256;2024-03-23T02:30:14;15.10;;;7.45;;
6127;SDS011;7073;42.672;23.256;2024-03-23T02:32:40;14.23;;;6.97;;
6127;SDS011;7073;42.672;23.256;2024-03-23T02:35:08;14.90;;;7.30;;
6127;SDS011;7073;42.672;23.256;2024-03-23T02:37:34;15.60;;;7.03;;
6127;SDS011;7073;42.672;23.256;2024-03-23T02:40:02;12.63;;;6.18;;
6127;SDS011;7073;42.672;23.256;2024-03-23T02:42:28;14.20;;;6.88;;
6127;SDS011;7073;42.672;23.256;2024-03-23T02:44:54;11.40;;;6.38;;
6127;SDS011;7073;42.672;23.256;2024-03-23T02:47:20;17.38;;;6.53;;
6127;SDS011;7073;42.672;23.256;2024-03-23T02:49:47;15.15;;;6.30;;
6127;SDS011;7073;42.672;23.256;2024-03-23T02:52:12;12.93;;;6.55;;
6127;SDS011;7073;42.672;23.256;2024-03-23T02:54:39;14.70;;;6.15;;
6127;SDS011;7073;42.672;23.256;2024-03-23T02:57:08;15.70;;;7.47;;
6127;SDS011;7073;42.672;23.256;2024-03-23T02:59:35;12.23;;;7.18;;
6127;SDS011;7073;42.672;23.256;2024-03-23T03:02:01;11.50;;;5.80;;
6127;SDS011;7073;42.672;23.256;2024-03-23T03:04:29;13.30;;;6.50;;
6127;SDS011;7073;42.672;23.256;2024-03-23T03:06:55;13.38;;;6.82;;
6127;SDS011;7073;42.672;23.256;2024-03-23T03:09:21;15.35;;;6.60;;
6127;SDS011;7073;42.672;23.256;2024-03-23T03:11:47;13.85;;;7.20;;
6127;SDS011;7073;42.672;23.256;2024-03-23T03:14:15;19.40;;;6.90;;
6127;SDS011;7073;42.672;23.256;2024-03-23T03:16:41;15.88;;;7.28;;
6127;SDS011;7073;42.672;23.256;2024-03-23T03:19:08;14.82;;;5.95;;
6127;SDS011;7073;42.672;23.256;2024-03-23T03:21:34;12.35;;;6.07;;
6127;SDS011;7073;42.672;23.256;2024-03-23T03:24:01;13.57;;;6.97;;
6127;SDS011;7073;42.672;23.256;2024-03-23T03:26:27;14.95;;;6.50;;
6127;SDS011;7073;42.672;23.256;2024-03-23T03:28:54;12.80;;;6.60;;
6127;SDS011;7073;42.672;23.256;2024-03-23T03:31:21;14.80;;;6.82;;
6127;SDS011;7073;42.672;23.256;2024-03-23T03:33:49;15.13;;;6.63;;
6127;SDS011;7073;42.672;23.256;2024-03-23T03:36:14;12.63;;;6.15;;
6127;SDS011;7073;42.672;23.256;2024-03-23T03:38:41;18.17;;;7.68;;
6127;SDS011;7073;42.672;23.256;2024-03-23T03:41:07;14.93;;;6.72;;
6127;SDS011;7073;42.672;23.256;2024-03-23T03:43:33;14.52;;;6.25;;
6127;SDS011;7073;42.672;23.256;2024-03-23T03:46:00;15.18;;;5.90;;
6127;SDS011;7073;42.672;23.256;2024-03-23T03:48:28;14.18;;;6.38;;
6127;SDS011;7073;42.672;23.256;2024-03-23T03:50:53;14.07;;;6.53;;
6127;SDS011;7073;42.672;23.256;2024-03-23T03:53:20;13.27;;;6.03;;
6127;SDS011;7073;42.672;23.256;2024-03-23T03:55:46;15.82;;;6.65;;
6127;SDS011;7073;42.672;23.256;2024-03-23T03:58:13;12.27;;;6.45;;
6127;SDS011;7073;42.672;23.256;2024-03-23T04:00:38;13.30;;;6.70;;
6127;SDS011;7073;42.672;23.256;2024-03-23T04:03:05;16.92;;;6.03;;
6127;SDS011;7073;42.672;23.256;2024-03-23T04:05:32;11.38;;;5.35;;
6127;SDS011;7073;42.672;23.256;2024-03-23T04:07:59;9.13;;;4.60;;
6127;SDS011;7073;42.672;23.256;2024-03-23T04:10:24;11.10;;;5.93;;
6127;SDS011;7073;42.672;23.256;2024-03-23T04:12:52;14.70;;;5.80;;
6127;SDS011;7073;42.672;23.256;2024-03-23T04:15:17;17.48;;;6.28;;
6127;SDS011;7073;42.672;23.256;2024-03-23T04:17:44;11.18;;;5.68;;
6127;SDS011;7073;42.672;23.256;2024-03-23T04:20:10;14.18;;;5.82;;
6127;SDS011;7073;42.672;23.256;2024-03-23T04:22:40;14.15;;;6.00;;
6127;SDS011;7073;42.672;23.256;2024-03-23T04:25:06;13.15;;;6.40;;
6127;SDS011;7073;42.672;23.256;2024-03-23T04:27:33;14.50;;;6.82;;
6127;SDS011;7073;42.672;23.256;2024-03-23T04:29:58;14.20;;;6.00;;
6127;SDS011;7073;42.672;23.256;2024-03-23T04:32:26;12.18;;;5.95;;
6127;SDS011;7073;42.672;23.256;2024-03-23T04:34:53;13.85;;;6.68;;
6127;SDS011;7073;42.672;23.256;2024-03-23T04:37:21;13.77;;;6.35;;
6127;SDS011;7073;42.672;23.256;2024-03-23T04:39:49;18.02;;;7.03;;
6127;SDS011;7073;42.672;23.256;2024-03-23T04:42:16;15.32;;;6.63;;
6127;SDS011;7073;42.672;23.256;2024-03-23T04:44:42;11.88;;;6.25;;
6127;SDS011;7073;42.672;23.256;2024-03-23T04:47:10;13.48;;;6.57;;
6127;SDS011;7073;42.672;23.256;2024-03-23T04:49:36;14.77;;;6.18;;
6127;SDS011;7073;42.672;23.256;2024-03-23T04:52:03;13.80;;;6.28;;
6127;SDS011;7073;42.672;23.256;2024-03-23T04:54:30;13.40;;;5.78;;
6127;SDS011;7073;42.672;23.256;2024-03-23T04:56:58;15.57;;;6.97;;
6127;SDS011;7073;42.672;23.256;2024-03-23T04:59:24;16.33;;;7.53;;
6127;SDS011;7073;42.672;23.256;2024-03-23T05:01:51;15.75;;;6.13;;
6127;SDS011;7073;42.672;23.256;2024-03-23T05:04:17;15.98;;;7.18;;
6127;SDS011;7073;42.672;23.256;2024-03-23T05:06:43;15.15;;;6.82;;
6127;SDS011;7073;42.672;23.256;2024-03-23T05:09:09;17.27;;;7.72;;
6127;SDS011;7073;42.672;23.256;2024-03-23T05:11:37;17.60;;;7.35;;
6127;SDS011;7073;42.672;23.256;2024-03-23T05:14:04;16.35;;;7.32;;
6127;SDS011;7073;42.672;23.256;2024-03-23T05:16:30;21.98;;;9.57;;
6127;SDS011;7073;42.672;23.256;2024-03-23T05:18:56;21.90;;;9.02;;
6127;SDS011;7073;42.672;23.256;2024-03-23T05:21:23;19.05;;;8.88;;
6127;SDS011;7073;42.672;23.256;2024-03-23T05:23:49;18.42;;;9.07;;
6127;SDS011;7073;42.672;23.256;2024-03-23T05:26:16;18.20;;;10.18;;
6127;SDS011;7073;42.672;23.256;2024-03-23T05:28:42;20.13;;;9.35;;
6127;SDS011;7073;42.672;23.256;2024-03-23T05:31:10;17.10;;;9.52;;
6127;SDS011;7073;42.672;23.256;2024-03-23T05:33:36;16.75;;;8.40;;
6127;SDS011;7073;42.672;23.256;2024-03-23T05:36:04;15.77;;;7.45;;
6127;SDS011;7073;42.672;23.256;2024-03-23T05:38:29;13.57;;;7.93;;
6127;SDS011;7073;42.672;23.256;2024-03-23T05:40:56;15.80;;;7.25;;
6127;SDS011;7073;42.672;23.256;2024-03-23T05:43:22;15.27;;;7.07;;
6127;SDS011;7073;42.672;23.256;2024-03-23T05:45:53;14.75;;;6.90;;
6127;SDS011;7073;42.672;23.256;2024-03-23T05:48:20;14.00;;;6.82;;
6127;SDS011;7073;42.672;23.256;2024-03-23T05:50:46;14.10;;;6.68;;
6127;SDS011;7073;42.672;23.256;2024-03-23T05:53:12;15.68;;;7.93;;
6127;SDS011;7073;42.672;23.256;2024-03-23T05:55:40;17.85;;;7.85;;
6127;SDS011;7073;42.672;23.256;2024-03-23T05:58:07;17.25;;;8.02;;
6127;SDS011;7073;42.672;23.256;2024-03-23T06:00:56;14.63;;;7.95;;
6127;SDS011;7073;42.672;23.256;2024-03-23T06:03:28;17.40;;;8.02;;
6127;SDS011;7073;42.672;23.256;2024-03-23T06:05:57;18.55;;;8.00;;
6127;SDS011;7073;42.672;23.256;2024-03-23T06:08:24;19.58;;;8.00;;
6127;SDS011;7073;42.672;23.256;2024-03-23T06:10:50;16.50;;;8.07;;
6127;SDS011;7073;42.672;23.256;2024-03-23T06:13:17;18.38;;;8.77;;
6127;SDS011;7073;42.672;23.256;2024-03-23T06:15:43;14.70;;;8.13;;
6127;SDS011;7073;42.672;23.256;2024-03-23T06:18:11;23.33;;;8.30;;
6127;SDS011;7073;42.672;23.256;2024-03-23T06:20:38;19.52;;;9.43;;
6127;SDS011;7073;42.672;23.256;2024-03-23T06:23:05;19.42;;;8.73;;
6127;SDS011;7073;42.672;23.256;2024-03-23T06:25:31;15.25;;;8.30;;
6127;SDS011;7073;42.672;23.256;2024-03-23T06:27:57;20.27;;;8.52;;
6127;SDS011;7073;42.672;23.256;2024-03-23T06:30:23;14.90;;;8.00;;
6127;SDS011;7073;42.672;23.256;2024-03-23T06:32:50;16.15;;;8.27;;
6127;SDS011;7073;42.672;23.256;2024-03-23T06:35:15;17.73;;;8.90;;
6127;SDS011;7073;42.672;23.256;2024-03-23T06:37:43;16.30;;;8.18;;
6127;SDS011;7073;42.672;23.256;2024-03-23T06:40:09;18.48;;;8.68;;
6127;SDS011;7073;42.672;23.256;2024-03-23T06:42:36;18.50;;;8.60;;
6127;SDS011;7073;42.672;23.256;2024-03-23T06:45:01;21.67;;;9.68;;
6127;SDS011;7073;42.672;23.256;2024-03-23T06:47:28;15.70;;;8.50;;
6127;SDS011;7073;42.672;23.256;2024-03-23T06:49:54;15.57;;;7.85;;
6127;SDS011;7073;42.672;23.256;2024-03-23T06:52:21;17.27;;;8.63;;
6127;SDS011;7073;42.672;23.256;2024-03-23T06:54:48;18.50;;;8.52;;
6127;SDS011;7073;42.672;23.256;2024-03-23T06:57:14;16.35;;;8.35;;
6127;SDS011;7073;42.672;23.256;2024-03-23T06:59:40;15.45;;;8.27;;
6127;SDS011;7073;42.672;23.256;2024-03-23T07:02:07;11.23;;;6.63;;
6127;SDS011;7073;42.672;23.256;2024-03-23T07:04:33;15.00;;;7.30;;
6127;SDS011;7073;42.672;23.256;2024-03-23T07:07:00;14.40;;;6.47;;
6127;SDS011;7073;42.672;23.256;2024-03-23T07:09:27;16.08;;;7.25;;
6127;SDS011;7073;42.672;23.256;2024-03-23T07:11:55;16.27;;;6.28;;
6127;SDS011;7073;42.672;23.256;2024-03-23T07:14:21;15.63;;;7.43;;
6127;SDS011;7073;42.672;23.256;2024-03-23T07:16:48;15.55;;;7.15;;
6127;SDS011;7073;42.672;23.256;2024-03-23T07:19:14;16.55;;;7.18;;
6127;SDS011;7073;42.672;23.256;2024-03-23T07:21:41;15.07;;;7.30;;
6127;SDS011;7073;42.672;23.256;2024-03-23T07:24:07;18.70;;;7.60;;
6127;SDS011;7073;42.672;23.256;2024-03-23T07:26:34;16.88;;;8.15;;
6127;SDS011;7073;42.672;23.256;2024-03-23T07:29:01;17.55;;;8.05;;
6127;SDS011;7073;42.672;23.256;2024-03-23T07:31:28;17.25;;;8.02;;
6127;SDS011;7073;42.672;23.256;2024-03-23T07:33:54;14.27;;;7.43;;
6127;SDS011;7073;42.672;23.256;2024-03-23T07:36:21;15.90;;;7.43;;
6127;SDS011;7073;42.672;23.256;2024-03-23T07:38:46;16.20;;;7.93;;
6127;SDS011;7073;42.672;23.256;2024-03-23T07:41:14;13.30;;;7.60;;
6127;SDS011;7073;42.672;23.256;2024-03-23T07:43:40;15.95;;;8.18;;
6127;SDS011;7073;42.672;23.256;2024-03-23T07:46:08;17.85;;;7.75;;
6127;SDS011;7073;42.672;23.256;2024-03-23T07:48:34;19.88;;;9.85;;
6127;SDS011;7073;42.672;23.256;2024-03-23T07:51:01;23.60;;;8.20;;
6127;SDS011;7073;42.672;23.256;2024-03-23T07:53:27;16.77;;;8.40;;
6127;SDS011;7073;42.672;23.256;2024-03-23T07:55:54;17.73;;;8.10;;
6127;SDS011;7073;42.672;23.256;2024-03-23T07:58:20;17.10;;;8.82;;
6127;SDS011;7073;42.672;23.256;2024-03-23T08:00:46;16.05;;;8.43;;
6127;SDS011;7073;42.672;23.256;2024-03-23T08:03:13;18.40;;;8.05;;
6127;SDS011;7073;42.672;23.256;2024-03-23T08:05:40;16.10;;;8.55;;
6127;SDS011;7073;42.672;23.256;2024-03-23T08:08:06;14.15;;;7.60;;
6127;SDS011;7073;42.672;23.256;2024-03-23T08:10:32;15.93;;;8.20;;
6127;SDS011;7073;42.672;23.256;2024-03-23T08:12:58;20.27;;;9.48;;
6127;SDS011;7073;42.672;23.256;2024-03-23T08:15:25;13.88;;;7.95;;
6127;SDS011;7073;42.672;23.256;2024-03-23T08:17:50;14.23;;;7.35;;
6127;SDS011;7073;42.672;23.256;2024-03-23T08:20:18;16.58;;;8.50;;
6127;SDS011;7073;42.672;23.256;2024-03-23T08:22:44;16.20;;;8.23;;
6127;SDS011;7073;42.672;23.256;2024-03-23T08:25:10;16.65;;;9.10;;
6127;SDS011;7073;42.672;23.256;2024-03-23T08:27:36;22.63;;;9.35;;
6127;SDS011;7073;42.672;23.256;2024-03-23T08:30:03;23.70;;;8.57;;
6127;SDS011;7073;42.672;23.256;2024-03-23T08:32:29;20.23;;;8.82;;
6127;SDS011;7073;42.672;23.256;2024-03-23T08:34:55;13.70;;;8.00;;
6127;SDS011;7073;42.672;23.256;2024-03-23T08:37:22;21.05;;;8.98;;
6127;SDS011;7073;42.672;23.256;2024-03-23T08:39:50;16.65;;;8.50;;
6127;SDS011;7073;42.672;23.256;2024-03-23T08:42:18;16.00;;;7.90;;
6127;SDS011;7073;42.672;23.256;2024-03-23T08:44:46;17.90;;;8.43;;
6127;SDS011;7073;42.672;23.256;2024-03-23T08:47:14;19.52;;;8.45;;
6127;SDS011;7073;42.672;23.256;2024-03-23T08:49:41;14.77;;;7.93;;
6127;SDS011;7073;42.672;23.256;2024-03-23T08:52:07;14.48;;;8.40;;
6127;SDS011;7073;42.672;23.256;2024-03-23T08:54:35;23.25;;;8.32;;
6127;SDS011;7073;42.672;23.256;2024-03-23T08:57:00;14.18;;;8.73;;
6127;SDS011;7073;42.672;23.256;2024-03-23T08:59:27;18.15;;;8.77;;
6127;SDS011;7073;42.672;23.256;2024-03-23T09:01:53;21.15;;;9.02;;
6127;SDS011;7073;42.672;23.256;2024-03-23T09:04:19;16.27;;;8.45;;
6127;SDS011;7073;42.672;23.256;2024-03-23T09:06:45;15.98;;;8.13;;
6127;SDS011;7073;42.672;23.256;2024-03-23T09:09:11;14.73;;;8.40;;
6127;SDS011;7073;42.672;23.256;2024-03-23T09:11:38;17.65;;;8.68;;
6127;SDS011;7073;42.672;23.256;2024-03-23T09:14:05;15.93;;;8.95;;
6127;SDS011;7073;42.672;23.256;2024-03-23T09:16:31;22.10;;;8.55;;
6127;SDS011;7073;42.672;23.256;2024-03-23T09:18:57;21.73;;;8.85;;
6127;SDS011;7073;42.672;23.256;2024-03-23T09:21:23;19.48;;;9.02;;
6127;SDS011;7073;42.672;23.256;2024-03-23T09:23:50;15.13;;;8.88;;
6127;SDS011;7073;42.672;23.256;2024-03-23T09:26:15;17.17;;;8.40;;
6127;SDS011;7073;42.672;23.256;2024-03-23T09:28:44;16.95;;;8.57;;
6127;SDS011;7073;42.672;23.256;2024-03-23T09:31:09;16.67;;;8.77;;
6127;SDS011;7073;42.672;23.256;2024-03-23T09:33:39;17.08;;;8.65;;
6127;SDS011;7073;42.672;23.256;2024-03-23T09:36:05;17.58;;;8.43;;
6127;SDS011;7073;42.672;23.256;2024-03-23T09:38:33;13.52;;;8.43;;
6127;SDS011;7073;42.672;23.256;2024-03-23T09:40:58;16.77;;;8.85;;
6127;SDS011;7073;42.672;23.256;2024-03-23T09:43:25;18.35;;;9.55;;
6127;SDS011;7073;42.672;23.256;2024-03-23T09:45:52;16.92;;;8.10;;
6127;SDS011;7073;42.672;23.256;2024-03-23T09:48:19;14.80;;;7.53;;
6127;SDS011;7073;42.672;23.256;2024-03-23T09:50:45;13.32;;;8.23;;
6127;SDS011;7073;42.672;23.256;2024-03-23T09:53:14;12.75;;;7.35;;
6127;SDS011;7073;42.672;23.256;2024-03-23T09:55:40;15.55;;;7.30;;
6127;SDS011;7073;42.672;23.256;2024-03-23T09:58:07;15.38;;;8.27;;
6127;SDS011;7073;42.672;23.256;2024-03-23T10:00:33;14.07;;;7.55;;
6127;SDS011;7073;42.672;23.256;2024-03-23T10:03:01;13.35;;;7.72;;
6127;SDS011;7073;42.672;23.256;2024-03-23T10:05:27;12.25;;;6.75;;
6127;SDS011;7073;42.672;23.256;2024-03-23T10:07:54;22.55;;;8.30;;
6127;SDS011;7073;42.672;23.256;2024-03-23T10:10:20;21.83;;;8.70;;
6127;SDS011;7073;42.672;23.256;2024-03-23T10:12:47;12.65;;;7.18;;
6127;SDS011;7073;42.672;23.256;2024-03-23T10:15:17;16.52;;;7.93;;
6127;SDS011;7073;42.672;23.256;2024-03-23T10:17:44;24.60;;;9.38;;
6127;SDS011;7073;42.672;23.256;2024-03-23T10:20:12;11.00;;;7.25;;
6127;SDS011;7073;42.672;23.256;2024-03-23T10:22:38;14.40;;;7.30;;
6127;SDS011;7073;42.672;23.256;2024-03-23T10:25:07;16.08;;;7.68;;
6127;SDS011;7073;42.672;23.256;2024-03-23T10:27:34;11.82;;;7.38;;
6127;SDS011;7073;42.672;23.256;2024-03-23T10:30:08;11.75;;;6.25;;
6127;SDS011;7073;42.672;23.256;2024-03-23T10:35:15;12.88;;;6.95;;
6127;SDS011;7073;42.672;23.256;2024-03-23T10:37:42;12.80;;;7.25;;
6127;SDS011;7073;42.672;23.256;2024-03-23T10:40:08;10.60;;;6.82;;
6127;SDS011;7073;42.672;23.256;2024-03-23T10:42:36;17.35;;;6.57;;
6127;SDS011;7073;42.672;23.256;2024-03-23T10:45:02;16.10;;;7.50;;
6127;SDS011;7073;42.672;23.256;2024-03-23T10:47:30;10.60;;;6.80;;
6127;SDS011;7073;42.672;23.256;2024-03-23T10:49:56;15.02;;;7.45;;
6127;SDS011;7073;42.672;23.256;2024-03-23T10:52:24;15.10;;;6.63;;
6127;SDS011;7073;42.672;23.256;2024-03-23T10:54:50;13.30;;;6.07;;
6127;SDS011;7073;42.672;23.256;2024-03-23T10:57:18;19.48;;;8.73;;
6127;SDS011;7073;42.672;23.256;2024-03-23T10:59:45;13.50;;;6.88;;
6127;SDS011;7073;42.672;23.256;2024-03-23T11:02:18;10.18;;;6.25;;
6127;SDS011;7073;42.672;23.256;2024-03-23T11:04:44;9.93;;;6.03;;
6127;SDS011;7073;42.672;23.256;2024-03-23T11:07:29;11.55;;;5.65;;
6127;SDS011;7073;42.672;23.256;2024-03-23T11:09:55;12.88;;;5.40;;
6127;SDS011;7073;42.672;23.256;2024-03-23T11:12:29;10.57;;;5.30;;
6127;SDS011;7073;42.672;23.256;2024-03-23T11:14:58;12.40;;;5.65;;
6127;SDS011;7073;42.672;23.256;2024-03-23T11:17:25;11.13;;;5.38;;
6127;SDS011;7073;42.672;23.256;2024-03-23T11:19:55;9.52;;;4.95;;
6127;SDS011;7073;42.672;23.256;2024-03-23T11:25:17;9.60;;;5.00;;
6127;SDS011;7073;42.672;23.256;2024-03-23T11:27:45;34.63;;;6.18;;
6127;SDS011;7073;42.672;23.256;2024-03-23T11:30:14;19.98;;;4.70;;
6127;SDS011;7073;42.672;23.256;2024-03-23T11:32:42;10.73;;;4.72;;
6127;SDS011;7073;42.672;23.256;2024-03-23T11:35:08;9.65;;;4.95;;
6127;SDS011;7073;42.672;23.256;2024-03-23T11:37:38;16.88;;;5.95;;
6127;SDS011;7073;42.672;23.256;2024-03-23T11:40:19;15.27;;;4.32;;
6127;SDS011;7073;42.672;23.256;2024-03-23T11:43:06;22.63;;;5.65;;
6127;SDS011;7073;42.672;23.256;2024-03-23T11:45:34;8.63;;;3.92;;
6127;SDS011;7073;42.672;23.256;2024-03-23T11:48:06;8.77;;;3.58;;
6127;SDS011;7073;42.672;23.256;2024-03-23T11:50:34;6.22;;;2.08;;
6127;SDS011;7073;42.672;23.256;2024-03-23T11:53:06;3.45;;;1.70;;
6127;SDS011;7073;42.672;23.256;2024-03-23T11:55:45;2.58;;;1.65;;
6127;SDS011;7073;42.672;23.256;2024-03-23T11:58:11;3.78;;;2.33;;
6127;SDS011;7073;42.672;23.256;2024-03-23T12:00:39;3.90;;;1.63;;
6127;SDS011;7073;42.672;23.256;2024-03-23T12:03:05;2.65;;;1.52;;
6127;SDS011;7073;42.672;23.256;2024-03-23T12:05:33;7.18;;;2.00;;
6127;SDS011;7073;42.672;23.256;2024-03-23T12:08:17;3.58;;;1.52;;
6127;SDS011;7073;42.672;23.256;2024-03-23T12:10:47;4.57;;;2.67;;
6127;SDS011;7073;42.672;23.256;2024-03-23T12:13:14;3.42;;;1.00;;
6127;SDS011;7073;42.672;23.256;2024-03-23T12:15:42;1.88;;;0.95;;
6127;SDS011;7073;42.672;23.256;2024-03-23T12:18:09;1.63;;;0.80;;
6127;SDS011;7073;42.672;23.256;2024-03-23T12:20:36;7.10;;;1.20;;
6127;SDS011;7073;42.672;23.256;2024-03-23T12:23:09;3.15;;;0.80;;
6127;SDS011;7073;42.672;23.256;2024-03-23T12:25:36;1.00;;;0.60;;
6127;SDS011;7073;42.672;23.256;2024-03-23T12:28:04;4.82;;;0.80;;
6127;SDS011;7073;42.672;23.256;2024-03-23T12:30:32;3.15;;;0.90;;
6127;SDS011;7073;42.672;23.256;2024-03-23T12:32:57;1.63;;;0.90;;
6127;SDS011;7073;42.672;23.256;2024-03-23T12:35:24;1.77;;;1.00;;
6127;SDS011;7073;42.672;23.256;2024-03-23T12:37:50;4.28;;;1.00;;
6127;SDS011;7073;42.672;23.256;2024-03-23T12:40:16;4.40;;;1.25;;
6127;SDS011;7073;42.672;23.256;2024-03-23T12:42:42;7.97;;;1.98;;
6127;SDS011;7073;42.672;23.256;2024-03-23T12:45:10;1.48;;;0.68;;
6127;SDS011;7073;42.672;23.256;2024-03-23T12:47:36;3.72;;;1.27;;
6127;SDS011;7073;42.672;23.256;2024-03-23T12:50:03;2.80;;;1.02;;
6127;SDS011;7073;42.672;23.256;2024-03-23T12:52:28;2.97;;;1.15;;
6127;SDS011;7073;42.672;23.256;2024-03-23T12:54:55;5.47;;;1.20;;
6127;SDS011;7073;42.672;23.256;2024-03-23T12:57:22;1.20;;;0.70;;
6127;SDS011;7073;42.672;23.256;2024-03-23T12:59:48;3.10;;;0.90;;
6127;SDS011;7073;42.672;23.256;2024-03-23T13:02:17;2.20;;;1.10;;
6127;SDS011;7073;42.672;23.256;2024-03-23T13:04:45;3.47;;;1.00;;
6127;SDS011;7073;42.672;23.256;2024-03-23T13:07:11;2.17;;;1.00;;
6127;SDS011;7073;42.672;23.256;2024-03-23T13:09:37;5.72;;;1.08;;
6127;SDS011;7073;42.672;23.256;2024-03-23T13:12:03;1.90;;;0.90;;
6127;SDS011;7073;42.672;23.256;2024-03-23T13:14:30;2.00;;;1.00;;
6127;SDS011;7073;42.672;23.256;2024-03-23T13:16:55;2.83;;;1.10;;
6127;SDS011;7073;42.672;23.256;2024-03-23T13:19:23;2.47;;;0.88;;
6127;SDS011;7073;42.672;23.256;2024-03-23T13:21:52;2.97;;;1.20;;
6127;SDS011;7073;42.672;23.256;2024-03-23T13:24:21;6.47;;;1.08;;
6127;SDS011;7073;42.672;23.256;2024-03-23T13:26:46;2.38;;;0.98;;
6127;SDS011;7073;42.672;23.256;2024-03-23T13:29:13;2.10;;;1.00;;
6127;SDS011;7073;42.672;23.256;2024-03-23T13:31:38;5.68;;;1.65;;
6127;SDS011;7073;42.672;23.256;2024-03-23T13:34:05;2.88;;;1.30;;
6127;SDS011;7073;42.672;23.256;2024-03-23T13:36:32;3.15;;;1.48;;
6127;SDS011;7073;42.672;23.256;2024-03-23T13:38:59;2.85;;;1.40;;
6127;SDS011;7073;42.672;23.256;2024-03-23T13:41:24;3.95;;;1.50;;
6127;SDS011;7073;42.672;23.256;2024-03-23T13:43:52;2.13;;;1.13;;
6127;SDS011;7073;42.672;23.256;2024-03-23T13:46:18;4.38;;;1.90;;
6127;SDS011;7073;42.672;23.256;2024-03-23T13:48:45;5.00;;;1.33;;
6127;SDS011;7073;42.672;23.256;2024-03-23T13:51:11;1.65;;;1.00;;
6127;SDS011;7073;42.672;23.256;2024-03-23T13:53:39;2.72;;;1.40;;
6127;SDS011;7073;42.672;23.256;2024-03-23T13:56:05;2.85;;;1.50;;
6127;SDS011;7073;42.672;23.256;2024-03-23T13:58:32;4.72;;;1.60;;
6127;SDS011;7073;42.672;23.256;2024-03-23T14:00:58;3.03;;;1.40;;
6127;SDS011;7073;42.672;23.256;2024-03-23T14:03:25;4.18;;;1.60;;
6127;SDS011;7073;42.672;23.256;2024-03-23T14:05:50;2.13;;;1.30;;
6127;SDS011;7073;42.672;23.256;2024-03-23T14:08:18;5.70;;;1.70;;
6127;SDS011;7073;42.672;23.256;2024-03-23T14:10:48;4.30;;;1.48;;
6127;SDS011;7073;42.672;23.256;2024-03-23T14:13:15;2.67;;;1.52;;
6127;SDS011;7073;42.672;23.256;2024-03-23T14:15:40;1.92;;;1.23;;
6127;SDS011;7073;42.672;23.256;2024-03-23T14:18:07;4.05;;;1.85;;
6127;SDS011;7073;42.672;23.256;2024-03-23T14:20:33;6.40;;;1.75;;
6127;SDS011;7073;42.672;23.256;2024-03-23T14:23:09;4.15;;;2.10;;
6127;SDS011;7073;42.672;23.256;2024-03-23T14:25:35;4.10;;;1.60;;
6127;SDS011;7073;42.672;23.256;2024-03-23T14:28:05;3.47;;;1.70;;
6127;SDS011;7073;42.672;23.256;2024-03-23T14:30:31;2.80;;;1.55;;
6127;SDS011;7073;42.672;23.256;2024-03-23T14:32:58;3.70;;;1.60;;
6127;SDS011;7073;42.672;23.256;2024-03-23T14:35:24;9.23;;;1.92;;
6127;SDS011;7073;42.672;23.256;2024-03-23T14:37:52;3.88;;;2.00;;
6127;SDS011;7073;42.672;23.256;2024-03-23T14:40:18;3.83;;;2.10;;
6127;SDS011;7073;42.672;23.256;2024-03-23T14:42:45;5.00;;;2.00;;
6127;SDS011;7073;42.672;23.256;2024-03-23T14:45:12;6.22;;;1.90;;
6127;SDS011;7073;42.672;23.256;2024-03-23T14:47:41;5.20;;;2.30;;
6127;SDS011;7073;42.672;23.256;2024-03-23T14:50:08;3.80;;;2.20;;
6127;SDS011;7073;42.672;23.256;2024-03-23T14:52:39;5.50;;;2.17;;
6127;SDS011;7073;42.672;23.256;2024-03-23T14:55:05;3.65;;;2.00;;
6127;SDS011;7073;42.672;23.256;2024-03-23T14:57:34;5.43;;;1.83;;
6127;SDS011;7073;42.672;23.256;2024-03-23T15:00:00;4.28;;;1.98;;
6127;SDS011;7073;42.672;23.256;2024-03-23T15:02:28;3.72;;;1.85;;
6127;SDS011;7073;42.672;23.256;2024-03-23T15:04:55;3.10;;;1.92;;
6127;SDS011;7073;42.672;23.256;2024-03-23T15:07:22;4.25;;;1.90;;
6127;SDS011;7073;42.672;23.256;2024-03-23T15:09:47;5.47;;;2.08;;
6127;SDS011;7073;42.672;23.256;2024-03-23T15:12:14;7.35;;;1.90;;
6127;SDS011;7073;42.672;23.256;2024-03-23T15:14:39;2.45;;;1.58;;
6127;SDS011;7073;42.672;23.256;2024-03-23T15:17:06;5.63;;;2.38;;
6127;SDS011;7073;42.672;23.256;2024-03-23T15:19:35;6.80;;;4.07;;
6127;SDS011;7073;42.672;23.256;2024-03-23T15:22:01;4.25;;;1.90;;
6127;SDS011;7073;42.672;23.256;2024-03-23T15:24:28;6.43;;;2.08;;
6127;SDS011;7073;42.672;23.256;2024-03-23T15:26:54;3.22;;;2.05;;
6127;SDS011;7073;42.672;23.256;2024-03-23T15:29:20;4.22;;;2.00;;
6127;SDS011;7073;42.672;23.256;2024-03-23T15:31:48;5.53;;;2.10;;
6127;SDS011;7073;42.672;23.256;2024-03-23T15:34:17;4.60;;;2.10;;
6127;SDS011;7073;42.672;23.256;2024-03-23T15:36:45;4.53;;;2.05;;
6127;SDS011;7073;42.672;23.256;2024-03-23T15:39:11;4.55;;;1.85;;
6127;SDS011;7073;42.672;23.256;2024-03-23T15:41:39;3.45;;;2.08;;
6127;SDS011;7073;42.672;23.256;2024-03-23T15:44:05;3.17;;;1.90;;
6127;SDS011;7073;42.672;23.256;2024-03-23T15:46:31;7.38;;;2.17;;
6127;SDS011;7073;42.672;23.256;2024-03-23T15:48:57;3.25;;;1.98;;